createdAt,value
2017-07-20T00:01:03.505Z,53.00
2017-07-20T00:03:31.130Z,52.80
2017-07-20T00:05:58.769Z,53.00
2017-07-20T00:08:26.387Z,53.10
2017-07-20T00:10:53.999Z,53.00
2017-07-20T00:13:21.649Z,53.70
2017-07-20T00:15:49.239Z,54.80
2017-07-20T00:18:16.845Z,57.10
2017-07-20T00:20:44.497Z,56.50
2017-07-20T00:23:12.117Z,57.80
2017-07-20T00:25:39.723Z,57.60
2017-07-20T00:28:07.372Z,58.80
2017-07-20T00:30:34.981Z,59.20
2017-07-20T00:33:02.588Z,59.00
2017-07-20T00:35:31.000Z,60.50
2017-07-20T00:37:58.612Z,60.50
2017-07-20T00:40:26.235Z,59.40
2017-07-20T00:42:53.871Z,59.80
2017-07-20T00:45:21.490Z,59.60
2017-07-20T00:47:49.133Z,60.60
2017-07-20T00:50:16.774Z,60.10
2017-07-20T00:52:44.399Z,61.80
2017-07-20T00:55:12.015Z,62.10
2017-07-20T00:57:40.420Z,63.40
2017-07-20T01:00:08.036Z,63.30
2017-07-20T01:02:36.413Z,64.40
2017-07-20T01:05:04.053Z,64.40
2017-07-20T01:07:31.669Z,64.90
2017-07-20T01:09:59.275Z,63.30
2017-07-20T01:12:26.909Z,63.50
2017-07-20T01:14:54.520Z,64.30
2017-07-20T01:17:22.906Z,66.00
2017-07-20T01:19:50.554Z,66.00
2017-07-20T01:22:18.148Z,64.90
2017-07-20T01:24:45.757Z,64.90
2017-07-20T01:27:13.392Z,65.20
2017-07-20T01:29:41.001Z,64.70
2017-07-20T01:32:08.615Z,64.20
2017-07-20T01:34:36.243Z,63.80
2017-07-20T01:37:03.851Z,63.60
2017-07-20T01:39:32.214Z,65.80
2017-07-20T01:42:00.616Z,65.30
2017-07-20T01:44:28.219Z,65.20
2017-07-20T01:46:55.819Z,65.10
2017-07-20T01:49:23.461Z,66.30
2017-07-20T01:51:51.059Z,65.40
2017-07-20T01:54:18.659Z,66.10
2017-07-20T01:56:46.293Z,64.80
2017-07-20T01:59:13.912Z,64.60
2017-07-20T02:01:42.290Z,64.30
2017-07-20T02:04:09.933Z,64.30
2017-07-20T02:06:37.551Z,62.90
2017-07-20T02:09:05.167Z,62.60
2017-07-20T02:11:32.799Z,63.70
2017-07-20T02:14:00.413Z,64.00
2017-07-20T02:16:28.114Z,64.50
2017-07-20T02:18:55.755Z,64.80
2017-07-20T02:21:23.361Z,64.60
2017-07-20T02:23:50.972Z,64.20
2017-07-20T02:26:18.625Z,64.80
2017-07-20T02:28:47.005Z,65.60
2017-07-20T02:31:15.403Z,66.50
2017-07-20T02:33:43.040Z,66.50
2017-07-20T02:36:10.720Z,67.00
2017-07-20T02:38:38.335Z,68.10
2017-07-20T02:41:05.971Z,66.30
2017-07-20T02:43:33.835Z,67.50
2017-07-20T02:46:01.452Z,66.30
2017-07-20T02:48:29.086Z,65.90
2017-07-20T02:50:57.470Z,63.20
2017-07-20T02:53:25.068Z,63.10
2017-07-20T02:55:52.712Z,62.50
2017-07-20T02:58:20.312Z,61.30
2017-07-20T03:00:47.913Z,62.10
2017-07-20T03:03:15.554Z,63.90
2017-07-20T03:05:43.168Z,63.50
2017-07-20T03:08:10.777Z,65.30
2017-07-20T03:10:39.184Z,67.10
2017-07-20T03:13:06.798Z,67.10
2017-07-20T03:15:34.403Z,67.80
2017-07-20T03:18:02.052Z,69.10
2017-07-20T03:20:29.661Z,71.90
2017-07-20T03:22:57.263Z,69.20
2017-07-20T03:25:25.677Z,70.10
2017-07-20T03:27:53.280Z,70.00
2017-07-20T03:30:20.896Z,72.90
2017-07-20T03:32:48.544Z,75.50
2017-07-20T03:35:16.188Z,74.50
2017-07-20T03:37:43.797Z,74.30
2017-07-20T03:40:11.477Z,79.60
2017-07-20T03:42:39.081Z,78.30
2017-07-20T03:45:06.695Z,81.90
2017-07-20T03:47:35.087Z,90.40
2017-07-20T03:50:02.692Z,90.40
2017-07-20T03:52:30.295Z,89.20
2017-07-20T03:54:57.924Z,90.30
2017-07-20T03:57:25.541Z,91.10
2017-07-20T03:59:53.169Z,91.20
2017-07-20T04:02:20.818Z,90.90
2017-07-20T04:04:48.424Z,91.00
2017-07-20T04:07:16.033Z,91.20
2017-07-20T04:09:44.434Z,89.90
2017-07-20T04:12:12.031Z,89.80
2017-07-20T04:14:40.411Z,89.50
2017-07-20T04:17:08.812Z,87.70
2017-07-20T04:19:36.421Z,87.70
2017-07-20T04:22:04.784Z,87.40
2017-07-20T04:24:32.521Z,87.40
2017-07-20T04:27:00.901Z,87.50
2017-07-20T04:29:28.512Z,87.50
2017-07-20T04:31:56.164Z,86.80
2017-07-20T04:34:23.772Z,91.50
2017-07-20T04:36:51.375Z,92.20
2017-07-20T04:39:19.790Z,92.00
2017-07-20T04:41:47.396Z,91.80
2017-07-20T04:44:15.783Z,92.70
2017-07-20T04:46:43.437Z,92.70
2017-07-20T04:49:11.049Z,92.90
2017-07-20T04:51:38.667Z,93.90
2017-07-20T04:54:06.318Z,95.30
2017-07-20T04:56:33.951Z,93.10
2017-07-20T04:59:01.565Z,94.40
2017-07-20T05:01:29.218Z,92.70
2017-07-20T05:03:56.841Z,92.90
2017-07-20T05:06:24.443Z,92.00
2017-07-20T05:08:52.083Z,91.20
2017-07-20T05:11:19.709Z,92.20
2017-07-20T05:13:47.331Z,91.90
2017-07-20T05:16:14.981Z,90.30
2017-07-20T05:18:42.598Z,90.30
2017-07-20T05:21:10.980Z,88.40
2017-07-20T05:23:38.650Z,88.30
2017-07-20T05:26:06.265Z,85.60
2017-07-20T05:28:33.967Z,84.20
2017-07-20T05:31:01.876Z,85.30
2017-07-20T05:33:29.483Z,80.30
2017-07-20T05:35:57.177Z,79.20
2017-07-20T05:38:24.841Z,73.60
2017-07-20T05:40:52.449Z,73.40
2017-07-20T05:43:20.065Z,73.80
2017-07-20T05:45:47.849Z,71.20
2017-07-20T05:48:15.469Z,70.00
2017-07-20T05:50:43.083Z,67.60
2017-07-20T05:53:10.727Z,64.80
2017-07-20T05:55:38.341Z,66.60
2017-07-20T05:58:05.954Z,65.30
2017-07-20T06:00:34.374Z,63.00
2017-07-20T06:03:01.988Z,62.20
2017-07-20T06:05:29.609Z,61.90
2017-07-20T06:07:57.260Z,59.00
2017-07-20T06:10:25.646Z,59.40
2017-07-20T06:12:53.269Z,60.00
2017-07-20T06:15:20.912Z,55.00
2017-07-20T06:17:48.516Z,48.50
2017-07-20T06:20:16.124Z,45.90
2017-07-20T06:22:44.317Z,47.60
2017-07-20T06:25:12.042Z,47.00
2017-07-20T06:27:39.650Z,47.20
2017-07-20T06:30:07.280Z,40.80
2017-07-20T06:32:34.894Z,38.30
2017-07-20T06:35:02.499Z,37.90
2017-07-20T06:37:30.901Z,40.80
2017-07-20T06:39:58.509Z,40.00
2017-07-20T06:42:26.897Z,44.70
2017-07-20T06:44:54.537Z,44.10
2017-07-20T06:47:22.146Z,39.80
2017-07-20T06:49:50.195Z,39.30
2017-07-20T06:52:17.858Z,38.60
2017-07-20T06:54:45.484Z,33.30
2017-07-20T06:57:13.092Z,32.10
2017-07-20T06:59:40.734Z,31.50
2017-07-20T07:02:08.347Z,31.40
2017-07-20T07:04:35.949Z,30.10
2017-07-20T07:07:03.583Z,32.10
2017-07-20T07:09:31.193Z,31.20
2017-07-20T07:11:59.572Z,29.80
2017-07-20T07:14:27.216Z,29.80
2017-07-20T07:16:55.520Z,26.90
2017-07-20T07:19:23.134Z,25.20
2017-07-20T07:21:50.769Z,24.80
2017-07-20T07:24:19.142Z,23.40
2017-07-20T07:26:46.748Z,23.40
2017-07-20T07:29:14.388Z,22.60
2017-07-20T07:31:42.000Z,23.10
2017-07-20T07:34:09.635Z,22.80
2017-07-20T07:36:37.278Z,23.70
2017-07-20T07:39:04.893Z,22.10
2017-07-20T07:41:33.272Z,23.50
2017-07-20T07:44:01.685Z,20.00
2017-07-20T07:46:29.284Z,20.00
2017-07-20T07:48:57.655Z,21.00
2017-07-20T07:51:25.326Z,20.90
2017-07-20T07:53:52.930Z,21.20
2017-07-20T07:56:21.320Z,20.70
2017-07-20T07:58:48.981Z,20.60
2017-07-20T08:01:16.599Z,19.90
2017-07-20T08:03:44.965Z,21.70
2017-07-20T08:06:12.608Z,21.70
2017-07-20T08:08:40.217Z,20.80
2017-07-20T08:11:07.830Z,21.10
2017-07-20T08:13:35.470Z,21.30
2017-07-20T08:16:03.077Z,21.70
2017-07-20T08:18:31.453Z,19.60
2017-07-20T08:20:59.843Z,19.20
2017-07-20T08:23:27.447Z,19.20
2017-07-20T08:25:55.825Z,18.50
2017-07-20T08:28:23.469Z,18.50
2017-07-20T08:30:51.083Z,18.80
2017-07-20T08:33:18.689Z,18.80
2017-07-20T08:35:46.326Z,18.60
2017-07-20T08:38:13.926Z,18.20
2017-07-20T08:40:41.531Z,18.20
2017-07-20T08:43:09.168Z,17.40
2017-07-20T08:45:36.775Z,16.90
2017-07-20T08:48:05.141Z,17.20
2017-07-20T08:50:33.559Z,16.50
2017-07-20T08:53:01.176Z,16.00
2017-07-20T08:55:28.789Z,16.70
2017-07-20T08:57:56.437Z,16.70
2017-07-20T09:00:24.051Z,17.50
2017-07-20T09:02:51.659Z,17.40
2017-07-20T09:05:19.321Z,15.70
2017-07-20T09:07:46.928Z,16.00
2017-07-20T09:10:15.309Z,16.20
2017-07-20T09:12:42.970Z,15.80
2017-07-20T09:15:10.580Z,15.90
2017-07-20T09:17:38.183Z,15.10
2017-07-20T09:20:05.859Z,15.30
2017-07-20T09:22:33.459Z,13.40
2017-07-20T09:25:01.073Z,13.20
2017-07-20T09:27:29.493Z,14.00
2017-07-20T09:29:57.117Z,14.00
2017-07-20T09:32:24.726Z,13.50
2017-07-20T09:34:52.368Z,13.90
2017-07-20T09:37:20.119Z,14.90
2017-07-20T09:39:47.757Z,13.20
2017-07-20T09:42:15.402Z,13.60
2017-07-20T09:44:43.033Z,13.60
2017-07-20T09:47:10.642Z,14.00
2017-07-20T09:49:38.277Z,14.00
2017-07-20T09:52:05.877Z,14.60
2017-07-20T09:54:33.497Z,14.80
2017-07-20T09:57:01.188Z,14.80
2017-07-20T09:59:28.793Z,14.20
2017-07-20T10:01:56.403Z,15.80
2017-07-20T10:04:24.041Z,15.20
2017-07-20T10:06:52.406Z,15.00
2017-07-20T10:09:21.513Z,13.50
2017-07-20T10:11:49.175Z,13.50
2017-07-20T10:14:16.777Z,12.70
2017-07-20T10:16:44.382Z,14.10
2017-07-20T10:19:12.387Z,12.80
2017-07-20T10:21:39.988Z,14.30
2017-07-20T10:24:07.592Z,14.10
2017-07-20T10:26:35.249Z,13.80
2017-07-20T10:29:02.883Z,13.50
2017-07-20T10:31:30.506Z,15.80
2017-07-20T10:33:58.907Z,15.40
2017-07-20T10:36:26.517Z,15.10
2017-07-20T10:38:54.899Z,14.90
2017-07-20T10:41:22.534Z,14.90
2017-07-20T10:43:50.146Z,14.10
2017-07-20T10:46:17.752Z,15.80
2017-07-20T10:48:45.404Z,15.80
2017-07-20T10:51:13.026Z,17.30
2017-07-20T10:53:40.632Z,15.70
2017-07-20T10:56:08.282Z,15.10
2017-07-20T10:58:35.887Z,16.30
2017-07-20T11:01:03.483Z,16.60
2017-07-20T11:03:31.909Z,16.50
2017-07-20T11:05:59.513Z,16.10
2017-07-20T11:08:27.115Z,16.30
2017-07-20T11:10:54.765Z,17.00
2017-07-20T11:13:22.391Z,15.60
2017-07-20T11:15:49.995Z,17.80
2017-07-20T11:18:17.650Z,18.30
2017-07-20T11:20:45.263Z,16.70
2017-07-20T11:23:12.869Z,17.90
2017-07-20T11:25:40.516Z,18.20
2017-07-20T11:28:08.124Z,17.70
2017-07-20T11:30:35.730Z,17.80
2017-07-20T11:33:03.360Z,18.30
2017-07-20T11:35:30.964Z,17.90
2017-07-20T11:37:58.578Z,19.80
2017-07-20T11:40:26.217Z,19.60
2017-07-20T11:42:53.845Z,21.30
2017-07-20T11:45:21.470Z,20.40
2017-07-20T11:47:49.109Z,19.60
2017-07-20T11:50:17.558Z,20.20
2017-07-20T11:52:45.167Z,20.10
2017-07-20T11:55:12.821Z,20.00
2017-07-20T11:57:40.454Z,22.10
2017-07-20T12:00:08.076Z,21.50
2017-07-20T12:02:35.717Z,22.60
2017-07-20T12:05:04.090Z,22.50
2017-07-20T12:07:31.714Z,22.40
2017-07-20T12:09:59.345Z,22.50
2017-07-20T12:12:26.978Z,21.30
2017-07-20T12:14:55.340Z,20.70
2017-07-20T12:17:23.743Z,20.50
2017-07-20T12:19:51.354Z,20.50
2017-07-20T12:22:20.072Z,23.00
2017-07-20T12:24:47.730Z,23.00
2017-07-20T12:27:15.348Z,24.20
2017-07-20T12:29:42.949Z,21.90
2017-07-20T12:32:10.580Z,21.90
2017-07-20T12:34:38.191Z,23.40
2017-07-20T12:37:05.813Z,23.90
2017-07-20T12:39:34.232Z,20.50
2017-07-20T12:42:01.847Z,20.50
2017-07-20T12:44:29.449Z,23.10
2017-07-20T12:46:57.101Z,21.10
2017-07-20T12:49:25.468Z,24.10
2017-07-20T12:51:53.853Z,24.40
2017-07-20T12:54:21.514Z,24.40
2017-07-20T12:56:49.116Z,24.10
2017-07-20T12:59:16.716Z,23.30
2017-07-20T13:01:44.365Z,23.30
2017-07-20T13:04:11.985Z,23.10
2017-07-20T13:06:39.619Z,23.00
2017-07-20T13:09:07.260Z,21.90
2017-07-20T13:11:35.624Z,22.00
2017-07-20T13:14:04.008Z,23.20
2017-07-20T13:16:31.647Z,23.20
2017-07-20T13:18:59.253Z,23.00
2017-07-20T13:21:26.869Z,23.70
2017-07-20T13:23:54.507Z,22.60
2017-07-20T13:26:22.118Z,22.10
2017-07-20T13:28:49.719Z,22.30
2017-07-20T13:31:17.355Z,22.30
2017-07-20T13:33:44.964Z,22.60
2017-07-20T13:36:12.575Z,22.70
2017-07-20T13:38:40.230Z,23.00
2017-07-20T13:41:08.616Z,24.70
2017-07-20T13:43:36.222Z,24.60
2017-07-20T13:46:03.882Z,25.10
2017-07-20T13:48:31.497Z,22.80
2017-07-20T13:50:59.110Z,22.80
2017-07-20T13:53:26.763Z,22.80
2017-07-20T13:55:54.377Z,22.30
2017-07-20T13:58:22.753Z,23.60
2017-07-20T14:00:50.397Z,23.60
2017-07-20T14:03:18.788Z,24.10
2017-07-20T14:05:46.417Z,24.80
2017-07-20T14:08:14.821Z,26.20
2017-07-20T14:10:42.445Z,26.20
2017-07-20T14:13:10.057Z,26.00
2017-07-20T14:15:38.465Z,26.50
2017-07-20T14:18:06.080Z,26.50
2017-07-20T14:20:33.703Z,26.70
2017-07-20T14:23:02.121Z,27.20
2017-07-20T14:25:29.718Z,26.80
2017-07-20T14:27:57.326Z,27.40
2017-07-20T14:30:24.975Z,27.20
2017-07-20T14:32:52.575Z,26.30
2017-07-20T14:35:20.187Z,26.60
2017-07-20T14:37:47.823Z,25.80
2017-07-20T14:40:15.431Z,26.10
2017-07-20T14:42:43.117Z,26.90
2017-07-20T14:45:10.750Z,27.20
2017-07-20T14:47:38.360Z,26.90
2017-07-20T14:50:05.969Z,28.20
2017-07-20T14:52:33.619Z,28.50
2017-07-20T14:55:02.008Z,28.50
2017-07-20T14:57:30.016Z,28.40
2017-07-20T14:59:57.667Z,26.90
2017-07-20T15:02:25.280Z,27.10
2017-07-20T15:04:52.889Z,28.10
2017-07-20T15:07:21.301Z,28.10
2017-07-20T15:09:48.910Z,28.10
2017-07-20T15:12:17.298Z,28.80
2017-07-20T15:14:44.942Z,28.80
2017-07-20T15:17:12.561Z,27.70
2017-07-20T15:19:40.168Z,29.20
2017-07-20T15:22:07.822Z,27.90
2017-07-20T15:24:35.423Z,28.60
2017-07-20T15:27:03.027Z,28.60
2017-07-20T15:29:30.663Z,29.30
2017-07-20T15:31:58.273Z,29.70
2017-07-20T15:34:25.885Z,29.60
2017-07-20T15:36:53.802Z,28.40
2017-07-20T15:39:21.407Z,28.60
2017-07-20T15:41:49.019Z,28.90
2017-07-20T15:44:16.671Z,29.10
2017-07-20T15:46:45.047Z,27.30
2017-07-20T15:49:12.652Z,27.20
2017-07-20T15:51:40.311Z,27.30
2017-07-20T15:54:07.963Z,26.30
2017-07-20T15:56:36.322Z,28.90
2017-07-20T15:59:04.724Z,28.10
2017-07-20T16:01:32.337Z,27.60
2017-07-20T16:04:00.934Z,26.90
2017-07-20T16:06:28.642Z,26.90
2017-07-20T16:08:56.256Z,27.30
2017-07-20T16:11:23.915Z,28.10
2017-07-20T16:13:51.637Z,27.40
2017-07-20T16:16:19.303Z,27.60
2017-07-20T16:18:46.904Z,27.10
2017-07-20T16:21:14.558Z,27.30
2017-07-20T16:23:42.181Z,28.20
2017-07-20T16:26:10.554Z,28.30
2017-07-20T16:28:39.079Z,28.10
2017-07-20T16:31:06.701Z,28.00
2017-07-20T16:33:34.313Z,30.10
2017-07-20T16:36:02.726Z,28.20
2017-07-20T16:38:30.343Z,28.40
2017-07-20T16:40:58.034Z,28.50
2017-07-20T16:43:25.698Z,28.50
2017-07-20T16:45:53.321Z,28.70
2017-07-20T16:48:20.924Z,29.20
2017-07-20T16:50:48.644Z,29.10
2017-07-20T16:53:17.038Z,30.50
2017-07-20T16:55:44.672Z,30.20
2017-07-20T16:58:12.309Z,29.80
2017-07-20T17:00:40.689Z,31.90
2017-07-20T17:03:08.312Z,31.90
2017-07-20T17:05:36.713Z,32.30
2017-07-20T17:08:04.322Z,32.30
2017-07-20T17:10:32.708Z,33.70
2017-07-20T17:13:00.347Z,33.70
2017-07-20T17:15:27.958Z,33.80
2017-07-20T17:17:55.571Z,34.80
2017-07-20T17:20:23.251Z,38.50
2017-07-20T17:22:50.869Z,41.60
2017-07-20T17:25:18.485Z,48.30
2017-07-20T17:27:46.159Z,49.90
2017-07-20T17:30:13.767Z,54.00
2017-07-20T17:32:41.474Z,57.60
2017-07-20T17:35:09.146Z,60.50
2017-07-20T17:37:37.542Z,68.30
2017-07-20T17:40:05.155Z,67.60
2017-07-20T17:42:33.578Z,70.10
2017-07-20T17:45:01.207Z,70.10
2017-07-20T17:47:28.807Z,68.70
2017-07-20T17:49:56.453Z,71.80
2017-07-20T17:52:24.077Z,70.30
2017-07-20T17:54:51.690Z,71.40
2017-07-20T17:57:19.326Z,79.40
2017-07-20T17:59:46.933Z,75.90
2017-07-20T18:02:14.558Z,80.60
2017-07-20T18:04:42.209Z,78.80
2017-07-20T18:07:09.824Z,77.70
2017-07-20T18:09:37.445Z,78.60
2017-07-20T18:12:05.175Z,79.40
2017-07-20T18:14:32.799Z,81.60
2017-07-20T18:17:00.416Z,80.60
2017-07-20T18:19:28.070Z,82.20
2017-07-20T18:21:55.667Z,83.60
2017-07-20T18:24:24.045Z,86.00
2017-07-20T18:26:51.685Z,85.80
2017-07-20T18:29:20.064Z,88.30
2017-07-20T18:31:47.681Z,88.30
2017-07-20T18:34:16.083Z,87.50
2017-07-20T18:36:43.695Z,87.40
2017-07-20T18:39:11.304Z,85.80
2017-07-20T18:41:38.948Z,86.40
2017-07-20T18:44:06.568Z,84.90
2017-07-20T18:46:34.178Z,87.90
2017-07-20T18:49:02.615Z,83.20
2017-07-20T18:51:30.234Z,83.20
2017-07-20T18:53:57.843Z,84.90
2017-07-20T18:56:26.253Z,83.30
2017-07-20T18:58:53.860Z,83.20
2017-07-20T19:01:21.465Z,81.40
2017-07-20T19:03:49.364Z,81.60
2017-07-20T19:06:16.972Z,83.80
2017-07-20T19:08:44.574Z,84.30
2017-07-20T19:11:12.207Z,85.50
2017-07-20T19:13:39.829Z,82.90
2017-07-20T19:16:07.441Z,82.40
2017-07-20T19:18:35.075Z,84.80
2017-07-20T19:21:02.680Z,82.90
2017-07-20T19:23:30.284Z,83.20
2017-07-20T19:25:57.928Z,82.80
2017-07-20T19:28:25.540Z,85.40
2017-07-20T19:30:53.160Z,84.20
2017-07-20T19:33:20.793Z,83.60
2017-07-20T19:35:49.155Z,82.40
2017-07-20T19:38:16.780Z,82.40
2017-07-20T19:40:44.409Z,82.90
2017-07-20T19:43:12.021Z,83.50
2017-07-20T19:45:39.640Z,82.60
2017-07-20T19:48:08.035Z,82.40
2017-07-20T19:50:35.636Z,82.40
2017-07-20T19:53:03.243Z,82.00
2017-07-20T19:55:30.874Z,81.60
2017-07-20T19:57:58.483Z,81.60
2017-07-20T20:00:26.865Z,82.90
2017-07-20T20:02:54.509Z,82.90
2017-07-20T20:05:22.121Z,83.90
2017-07-20T20:07:50.577Z,82.70
2017-07-20T20:10:19.463Z,82.10
2017-07-20T20:12:47.075Z,81.60
2017-07-20T20:15:14.681Z,81.80
2017-07-20T20:17:43.093Z,81.20
2017-07-20T20:20:10.696Z,81.20
2017-07-20T20:22:39.077Z,82.90
2017-07-20T20:25:06.726Z,82.90
2017-07-20T20:27:34.338Z,82.40
2017-07-20T20:30:02.950Z,79.50
2017-07-20T20:32:30.675Z,79.80
2017-07-20T20:34:58.429Z,79.80
2017-07-20T20:37:26.104Z,79.50
2017-07-20T20:39:53.772Z,79.50
2017-07-20T20:42:21.521Z,80.40
2017-07-20T20:44:49.949Z,82.20
2017-07-20T20:47:17.683Z,81.50
2017-07-20T20:49:45.305Z,80.50
2017-07-20T20:52:13.822Z,82.70
2017-07-20T20:54:41.488Z,82.60
2017-07-20T20:57:09.096Z,84.50
2017-07-20T20:59:36.791Z,83.70
2017-07-20T21:02:04.436Z,83.80
2017-07-20T21:04:32.187Z,82.80
2017-07-20T21:06:59.827Z,82.90
2017-07-20T21:09:27.477Z,83.20
2017-07-20T21:11:55.093Z,83.70
2017-07-20T21:14:22.692Z,81.70
2017-07-20T21:16:51.107Z,80.80
2017-07-20T21:19:18.716Z,80.50
2017-07-20T21:21:47.091Z,81.20
2017-07-20T21:24:14.735Z,81.20
2017-07-20T21:26:42.354Z,81.60
2017-07-20T21:29:09.955Z,82.30
2017-07-20T21:31:37.602Z,81.80
2017-07-20T21:34:05.222Z,82.00
2017-07-20T21:36:32.837Z,81.70
2017-07-20T21:39:00.467Z,83.20
2017-07-20T21:41:28.079Z,83.70
2017-07-20T21:43:55.809Z,81.20
2017-07-20T21:46:23.453Z,79.90
2017-07-20T21:48:52.529Z,80.20
2017-07-20T21:51:20.147Z,79.50
2017-07-20T21:53:47.805Z,78.60
2017-07-20T21:56:16.186Z,78.00
2017-07-20T21:58:43.796Z,77.90
2017-07-20T22:01:11.427Z,78.70
2017-07-20T22:03:39.031Z,77.50
2017-07-20T22:06:06.649Z,78.30
2017-07-20T22:08:35.152Z,78.30
2017-07-20T22:11:02.760Z,78.20
2017-07-20T22:13:30.377Z,76.80
2017-07-20T22:15:58.016Z,75.00
2017-07-20T22:18:25.631Z,75.70
2017-07-20T22:20:53.241Z,75.50
2017-07-20T22:23:20.968Z,75.30
2017-07-20T22:25:48.581Z,75.40
2017-07-20T22:28:16.179Z,75.50
2017-07-20T22:30:43.829Z,75.10
2017-07-20T22:33:12.195Z,75.30
2017-07-20T22:35:39.805Z,74.90
2017-07-20T22:38:07.440Z,74.30
2017-07-20T22:40:35.047Z,74.90
2017-07-20T22:43:03.421Z,74.50
2017-07-20T22:45:31.232Z,74.40
2017-07-20T22:47:58.835Z,74.30
2017-07-20T22:50:26.434Z,74.70
2017-07-20T22:52:54.073Z,74.70
2017-07-20T22:55:21.692Z,75.60
2017-07-20T22:57:49.296Z,74.50
2017-07-20T23:00:16.957Z,74.10
2017-07-20T23:02:44.563Z,74.30
2017-07-20T23:05:12.173Z,74.20
2017-07-20T23:07:39.818Z,74.70
2017-07-20T23:10:07.423Z,75.00
2017-07-20T23:12:35.813Z,75.50
2017-07-20T23:15:03.461Z,75.40
2017-07-20T23:17:31.071Z,73.90
2017-07-20T23:19:59.434Z,73.80
2017-07-20T23:22:27.842Z,73.10
2017-07-20T23:24:55.448Z,73.10
2017-07-20T23:27:23.821Z,73.40
2017-07-20T23:29:51.454Z,73.40
2017-07-20T23:32:19.857Z,73.30
2017-07-20T23:34:47.475Z,73.30
2017-07-20T23:37:15.117Z,74.20
2017-07-20T23:39:43.488Z,73.30
2017-07-20T23:42:11.099Z,73.20
2017-07-20T23:44:38.739Z,73.80
2017-07-20T23:47:06.351Z,74.10
2017-07-20T23:49:33.947Z,73.60
2017-07-20T23:52:02.365Z,74.60
2017-07-20T23:54:29.976Z,74.00
2017-07-20T23:56:57.588Z,73.50
2017-07-20T23:59:25.220Z,74.10
